| time (UTC) | temp F | wind direction | speed knots | gust knots | rain 1hr in | rain 24hr in | rain mn in | humidity % | barometer mb |
| 20260507191521 | 54 | 121 | 1.7 | 8.7 | 0.00 | 0.46 | 0.03 | 33 | 1008.1 |
| 20260507190006 | 53 | 359 | 1.7 | 10.4 | 0.00 | 0.47 | 0.03 | 33 | 1008.3 |
| 20260507184508 | 55 | 58 | 1.7 | 7.8 | 0.00 | 0.49 | 0.03 | 32 | 1008.3 |
| 20260507183013 | 54 | 256 | 3.5 | 13.9 | 0.00 | 0.51 | 0.03 | 31 | 1008.6 |
| 20260507181524 | 54 | 274 | 4.3 | 12.2 | 0.00 | 0.55 | 0.03 | 31 | 1008.8 |
| 20260507180004 | 53 | 58 | 0.0 | 2.6 | 0.00 | 0.58 | 0.03 | 40 | 1008.7 |
| 20260507174508 | 52 | 306 | 1.7 | 9.6 | 0.00 | 0.61 | 0.03 | 40 | 1008.7 |
| 20260507173024 | 52 | 4 | 2.6 | 8.7 | 0.00 | 0.64 | 0.03 | 42 | 1008.8 |
| 20260507171512 | 53 | 212 | 0.9 | 10.4 | 0.00 | 0.66 | 0.03 | 44 | 1009.0 |
| 20260507170020 | 53 | 161 | 0.0 | 6.1 | 0.00 | 0.67 | 0.03 | 46 | 1009.1 |
| 20260507164504 | 52 | 217 | 0.9 | 7.8 | 0.00 | 0.69 | 0.03 | 49 | 1009.2 |
| 20260507163010 | 53 | 247 | 0.0 | 8.7 | 0.00 | 0.70 | 0.03 | 51 | 1009.3 |
| 20260507161511 | 51 | 290 | 2.6 | 7.0 | 0.00 | 0.71 | 0.03 | 59 | 1009.7 |
| 20260507160019 | 49 | 198 | 3.5 | 8.7 | 0.00 | 0.72 | 0.03 | 64 | 1009.9 |
| 20260507154520 | 49 | 192 | 0.0 | 7.0 | 0.00 | 0.73 | 0.03 | 74 | 1010.1 |
| 20260507153004 | 47 | 262 | 1.7 | 6.1 | 0.01 | 0.75 | 0.03 | 82 | 1010.0 |
| 20260507151507 | 46 | 205 | 0.9 | 4.3 | 0.02 | 0.76 | 0.03 | 86 | 1010.2 |
| 20260507150023 | 44 | 220 | 0.0 | 3.5 | 0.02 | 0.78 | 0.03 | 89 | 1010.3 |
| 20260507144525 | 44 | 217 | 0.0 | 5.2 | 0.02 | 0.79 | 0.03 | 88 | 1010.3 |
| 20260507143031 | 43 | 214 | 0.0 | 2.6 | 0.01 | 0.79 | 0.02 | 89 | 1010.4 |
| 20260507141505 | 43 | 214 | 0.9 | 4.3 | 0.00 | 0.78 | 0.01 | 85 | 1010.4 |
| 20260507140012 | 44 | 210 | 0.0 | 5.2 | 0.00 | 0.78 | 0.01 | 84 | 1010.3 |
| 20260507134524 | 44 | 198 | 0.0 | 3.5 | 0.00 | 0.79 | 0.01 | 83 | 1010.3 |
| 20260507133024 | 44 | 190 | 0.0 | 3.5 | 0.00 | 0.79 | 0.01 | 86 | 1010.2 |
| 20260507131530 | 43 | 190 | 0.0 | 3.5 | 0.00 | 0.80 | 0.01 | 88 | 1010.5 |
| 20260507130008 | 43 | 190 | 0.0 | 3.5 | 0.00 | 0.81 | 0.01 | 89 | 1010.4 |
| 20260507124512 | 43 | 188 | 0.0 | 3.5 | 0.00 | 0.81 | 0.01 | 92 | 1010.5 |
| 20260507123017 | 43 | 162 | 0.0 | 2.6 | 0.00 | 0.81 | 0.01 | 97 | 1010.4 |
| 20260507121522 | 42 | 162 | 0.0 | 1.7 | 0.00 | 0.81 | 0.01 | 98 | 1010.3 |
| 20260507120027 | 42 | 162 | 0.0 | 3.5 | 0.00 | 0.81 | 0.01 | 98 | 1010.4 |
| 20260507114510 | 41 | 63 | 0.0 | 1.7 | 0.00 | 0.81 | 0.01 | 98 | 1010.2 |
| 20260507113015 | 40 | 63 | 0.0 | 0.0 | 0.00 | 0.81 | 0.01 | 98 | 1010.3 |
| 20260507111521 | 40 | 63 | 0.0 | 1.7 | 0.01 | 0.81 | 0.01 | 98 | 1010.5 |
| 20260507110025 | 40 | 63 | 0.0 | 0.0 | 0.01 | 0.81 | 0.01 | 98 | 1010.5 |
| 20260507104526 | 39 | 63 | 0.0 | 0.0 | 0.01 | 0.81 | 0.01 | 98 | 1010.5 |
| 20260507103013 | 38 | 63 | 0.0 | 0.0 | 0.01 | 0.81 | 0.01 | 98 | 1010.3 |
| 20260507101517 | 37 | 63 | 0.0 | 0.0 | 0.00 | 0.80 | 0.00 | 98 | 1010.0 |
| 20260507100022 | 37 | 63 | 0.0 | 0.0 | 0.00 | 0.80 | 0.00 | 98 | 1010.3 |
| 20260507094504 | 37 | 63 | 0.0 | 0.0 | 0.00 | 0.80 | 0.00 | 98 | 1010.0 |
| 20260507093011 | 38 | 63 | 0.0 | 0.0 | 0.00 | 0.80 | 0.00 | 98 | 1010.0 |
| 20260507091513 | 38 | 63 | 0.0 | 0.0 | 0.00 | 0.80 | 0.00 | 98 | 1010.2 |
| 20260507090024 | 38 | 63 | 0.0 | 0.0 | 0.00 | 0.80 | 0.00 | 98 | 1010.2 |
| 20260507084527 | 37 | 63 | 0.0 | 0.0 | 0.00 | 0.80 | 0.00 | 98 | 1010.3 |
| 20260507083009 | 37 | 63 | 0.0 | 0.0 | 0.00 | 0.80 | 0.00 | 97 | 1010.2 |
| 20260507081512 | 38 | 63 | 0.0 | 0.0 | 0.00 | 0.80 | 0.00 | 97 | 1009.9 |
| 20260507080023 | 39 | 63 | 0.0 | 0.0 | 0.00 | 0.80 | 0.00 | 98 | 1009.8 |
| 20260507074520 | 39 | 63 | 0.0 | 0.0 | 0.00 | 0.81 | 0.00 | 98 | 1009.8 |
| 20260507073027 | 39 | 63 | 0.0 | 0.0 | 0.00 | 0.82 | 0.00 | 97 | 1009.8 |
| 20260507071511 | 39 | 63 | 0.0 | 0.0 | 0.00 | 0.82 | 0.00 | 97 | 1009.9 |
| 20260507070013 | 39 | 63 | 0.0 | 0.0 | 0.00 | 0.82 | 0.00 | 97 | 1010.0 |
| 20260507064518 | 39 | 63 | 0.0 | 0.0 | 0.00 | 0.83 | 0.00 | 97 | 1009.8 |
| 20260507063023 | 39 | 63 | 0.0 | 0.0 | 0.00 | 0.86 | 0.00 | 97 | 1009.8 |
| 20260507061526 | 40 | 63 | 0.0 | 0.0 | 0.00 | 0.88 | 0.00 | 96 | 1010.1 |
| 20260507060010 | 41 | 63 | 0.0 | 0.0 | 0.00 | 0.94 | 0.00 | 96 | 1009.8 |
| 20260507054520 | 41 | 63 | 0.0 | 0.0 | 0.00 | 0.94 | 0.00 | 97 | 1009.9 |
| 20260507053022 | 41 | 63 | 0.0 | 0.9 | 0.00 | 0.95 | 0.00 | 96 | 1010.0 |
| 20260507051524 | 42 | 63 | 0.0 | 0.0 | 0.00 | 0.95 | 0.00 | 97 | 1009.9 |
| 20260507050029 | 42 | 63 | 0.0 | 0.9 | 0.00 | 0.95 | 0.00 | 97 | 1010.0 |
| 20260507044512 | 42 | 63 | 0.0 | 2.6 | 0.00 | 0.97 | 0.00 | 97 | 1010.0 |
| 20260507043022 | 42 | 63 | 0.0 | 2.6 | 0.00 | 0.97 | 0.00 | 97 | 1009.9 |
| 20260507041522 | 43 | 63 | 0.0 | 0.0 | 0.01 | 0.97 | 0.00 | 97 | 1010.1 |
| 20260507040026 | 42 | 63 | 0.0 | 0.0 | 0.01 | 0.97 | 0.00 | 97 | 1009.8 |
| 20260507034527 | 43 | 63 | 0.0 | 0.0 | 0.02 | 0.97 | 0.97 | 97 | 1010.2 |
| 20260507033006 | 43 | 63 | 0.0 | 1.7 | 0.03 | 0.97 | 0.97 | 96 | 1010.3 |
| 20260507031506 | 43 | 63 | 0.0 | 0.9 | 0.03 | 0.96 | 0.96 | 96 | 1010.3 |
| 20260507030009 | 43 | 1 | 0.0 | 5.2 | 0.04 | 0.96 | 0.96 | 96 | 1010.5 |
| 20260507024510 | 43 | 55 | 0.0 | 0.9 | 0.05 | 0.95 | 0.95 | 96 | 1010.7 |
| 20260507023007 | 43 | 55 | 0.0 | 4.3 | 0.05 | 0.94 | 0.94 | 96 | 1010.7 |
| 20260507021510 | 44 | 84 | 0.0 | 1.7 | 0.05 | 0.93 | 0.93 | 96 | 1010.7 |
| 20260507020010 | 44 | 84 | 0.0 | 0.0 | 0.05 | 0.92 | 0.92 | 97 | 1010.4 |
| 20260507014517 | 44 | 84 | 0.0 | 0.0 | 0.05 | 0.90 | 0.90 | 97 | 1010.3 |
| 20260507013017 | 44 | 53 | 0.0 | 2.6 | 0.06 | 0.89 | 0.89 | 97 | 1010.0 |
| 20260507011514 | 45 | 53 | 0.0 | 1.7 | 0.07 | 0.88 | 0.88 | 97 | 1010.2 |
| 20260507010013 | 45 | 53 | 0.0 | 0.0 | 0.06 | 0.87 | 0.87 | 97 | 1009.8 |
| 20260507004510 | 45 | 53 | 0.0 | 1.7 | 0.04 | 0.85 | 0.85 | 97 | 1009.8 |
| 20260507003013 | 45 | 53 | 0.0 | 0.0 | 0.03 | 0.83 | 0.83 | 97 | 1009.4 |
| 20260507001510 | 46 | 53 | 0.0 | 0.0 | 0.03 | 0.81 | 0.81 | 97 | 1009.5 |
| 20260507000013 | 46 | 53 | 0.0 | 0.0 | 0.04 | 0.81 | 0.81 | 97 | 1009.3 |
| 20260506234516 | 46 | 53 | 0.0 | 0.0 | 0.04 | 0.81 | 0.81 | 97 | 1009.3 |
| 20260506233012 | 46 | 53 | 0.0 | 0.0 | 0.03 | 0.80 | 0.80 | 97 | 1009.3 |
| 20260506231512 | 46 | 53 | 0.0 | 0.0 | 0.02 | 0.78 | 0.78 | 96 | 1009.1 |
| 20260506230014 | 47 | 53 | 0.0 | 0.0 | 0.02 | 0.77 | 0.77 | 96 | 1009.1 |
| 20260506224515 | 47 | 53 | 0.0 | 0.0 | 0.07 | 0.77 | 0.77 | 96 | 1008.9 |
| 20260506223014 | 47 | 53 | 0.0 | 1.7 | 0.14 | 0.77 | 0.77 | 96 | 1008.8 |
| 20260506221514 | 47 | 53 | 0.0 | 1.7 | 0.14 | 0.76 | 0.76 | 95 | 1008.8 |
| 20260506220015 | 47 | 49 | 0.0 | 3.5 | 0.16 | 0.76 | 0.75 | 94 | 1008.7 |
| 20260506214529 | 48 | 359 | 0.9 | 6.1 | 0.12 | 0.73 | 0.70 | 93 | 1008.2 |
| 20260506213019 | 48 | 260 | 0.9 | 4.3 | 0.07 | 0.71 | 0.63 | 93 | 1008.0 |
| 20260506211516 | 49 | 80 | 0.0 | 4.3 | 0.06 | 0.72 | 0.62 | 92 | 1007.8 |
| 20260506210019 | 50 | 81 | 0.0 | 6.1 | 0.03 | 0.70 | 0.58 | 93 | 1007.6 |
| 20260506204516 | 52 | 290 | 0.0 | 5.2 | 0.03 | 0.74 | 0.58 | 93 | 1007.4 |
| 20260506203019 | 53 | 139 | 0.0 | 0.9 | 0.01 | 0.75 | 0.56 | 96 | 1007.3 |
| 20260506201516 | 53 | 139 | 0.0 | 0.9 | 0.02 | 0.75 | 0.56 | 95 | 1007.4 |
| 20260506200016 | 54 | 139 | 0.0 | 0.9 | 0.03 | 0.75 | 0.56 | 97 | 1007.5 |
| 20260506194518 | 53 | 139 | 0.0 | 1.7 | 0.04 | 0.74 | 0.55 | 97 | 1007.7 |
| 20260506193014 | 53 | 139 | 0.0 | 0.0 | 0.06 | 0.74 | 0.55 | 96 | 1007.8 |